Wonewoc, Wisconsin
Current Conditions -  °F | °C
As of 10:55 AM on Saturday 22 Nov 2014 (Local Time) from KC35 Reporting Station
Haze Haze  
Wind Chill: 31°   Ceiling: 300
Heat Index: 36°   Visibility: 1.5mi
Dew Point: 36°   Wind: 6mph
Humidity: 99%   Direction: 220°SW
Pressure: 29.83"   Gusts: NA
Location:  43.65°N, 90.22°W
Report Text: KC35 221655Z AUTO 22005KT 1 1/2SM BR OVC003 02/02 A2983 RMK AO2 T00230021
Loading
Personal Weather Stations






























Interactive Weather Map New forecast layout! Learn more

10-Day Weather Forecast

Advertisements
Track Severe Weather on mobile